sensor_id;sensor_type;location;lat;lon;timestamp;P1;P2;P0
83484;PMS5003;73420;32.678;-85.380;2024-02-28T00:04:05;10;9;
83484;PMS5003;73420;32.678;-85.380;2024-02-28T00:06:31;8;7;
83484;PMS5003;73420;32.678;-85.380;2024-02-28T00:08:57;11;10;
83484;PMS5003;73420;32.678;-85.380;2024-02-28T00:11:26;8;8;
83484;PMS5003;73420;32.678;-85.380;2024-02-28T00:13:48;9;9;
83484;PMS5003;73420;32.678;-85.380;2024-02-28T00:16:13;6;6;
83484;PMS5003;73420;32.678;-85.380;2024-02-28T00:18:38;11;10;
83484;PMS5003;73420;32.678;-85.380;2024-02-28T00:21:04;8;7;
83484;PMS5003;73420;32.678;-85.380;2024-02-28T00:23:32;8;7;
83484;PMS5003;73420;32.678;-85.380;2024-02-28T00:25:55;8;7;
83484;PMS5003;73420;32.678;-85.380;2024-02-28T00:28:20;8;8;
83484;PMS5003;73420;32.678;-85.380;2024-02-28T00:30:46;9;7;
83484;PMS5003;73420;32.678;-85.380;2024-02-28T00:33:11;10;10;
83484;PMS5003;73420;32.678;-85.380;2024-02-28T00:35:41;6;6;
83484;PMS5003;73420;32.678;-85.380;2024-02-28T00:38:02;7;7;
83484;PMS5003;73420;32.678;-85.380;2024-02-28T00:40:27;7;7;
83484;PMS5003;73420;32.678;-85.380;2024-02-28T00:42:52;8;8;
83484;PMS5003;73420;32.678;-85.380;2024-02-28T00:45:18;7;7;
83484;PMS5003;73420;32.678;-85.380;2024-02-28T00:47:43;9;9;
83484;PMS5003;73420;32.678;-85.380;2024-02-28T00:50:09;8;8;
83484;PMS5003;73420;32.678;-85.380;2024-02-28T00:52:34;9;8;
83484;PMS5003;73420;32.678;-85.380;2024-02-28T00:54:59;9;9;
83484;PMS5003;73420;32.678;-85.380;2024-02-28T00:57:24;12;11;
83484;PMS5003;73420;32.678;-85.380;2024-02-28T00:59:53;9;9;
83484;PMS5003;73420;32.678;-85.380;2024-02-28T01:02:15;8;8;
83484;PMS5003;73420;32.678;-85.380;2024-02-28T01:04:41;13;13;
83484;PMS5003;73420;32.678;-85.380;2024-02-28T01:07:06;10;9;
83484;PMS5003;73420;32.678;-85.380;2024-02-28T01:09:31;10;9;
83484;PMS5003;73420;32.678;-85.380;2024-02-28T01:11:57;11;10;
83484;PMS5003;73420;32.678;-85.380;2024-02-28T01:14:22;16;15;
83484;PMS5003;73420;32.678;-85.380;2024-02-28T01:16:47;14;12;
83484;PMS5003;73420;32.678;-85.380;2024-02-28T01:19:15;13;13;
83484;PMS5003;73420;32.678;-85.380;2024-02-28T01:21:38;14;13;
83484;PMS5003;73420;32.678;-85.380;2024-02-28T01:24:03;14;13;
83484;PMS5003;73420;32.678;-85.380;2024-02-28T01:26:28;15;14;
83484;PMS5003;73420;32.678;-85.380;2024-02-28T01:28:53;12;11;
83484;PMS5003;73420;32.678;-85.380;2024-02-28T01:31:19;15;14;
83484;PMS5003;73420;32.678;-85.380;2024-02-28T01:33:44;15;14;
83484;PMS5003;73420;32.678;-85.380;2024-02-28T01:36:10;17;16;
83484;PMS5003;73420;32.678;-85.380;2024-02-28T01:38:34;12;11;
83484;PMS5003;73420;32.678;-85.380;2024-02-28T01:41:00;14;14;
83484;PMS5003;73420;32.678;-85.380;2024-02-28T01:43:25;13;13;
83484;PMS5003;73420;32.678;-85.380;2024-02-28T01:45:50;14;14;
83484;PMS5003;73420;32.678;-85.380;2024-02-28T01:48:15;13;12;
83484;PMS5003;73420;32.678;-85.380;2024-02-28T01:50:41;17;16;
83484;PMS5003;73420;32.678;-85.380;2024-02-28T01:53:06;13;12;
83484;PMS5003;73420;32.678;-85.380;2024-02-28T01:55:31;13;12;
83484;PMS5003;73420;32.678;-85.380;2024-02-28T01:57:57;15;14;
83484;PMS5003;73420;32.678;-85.380;2024-02-28T02:00:22;11;11;
83484;PMS5003;73420;32.678;-85.380;2024-02-28T02:02:47;13;13;
83484;PMS5003;73420;32.678;-85.380;2024-02-28T02:05:13;13;13;
83484;PMS5003;73420;32.678;-85.380;2024-02-28T02:07:38;14;14;
83484;PMS5003;73420;32.678;-85.380;2024-02-28T02:10:04;13;13;
83484;PMS5003;73420;32.678;-85.380;2024-02-28T02:12:29;15;14;
83484;PMS5003;73420;32.678;-85.380;2024-02-28T02:14:54;13;12;
83484;PMS5003;73420;32.678;-85.380;2024-02-28T02:17:19;10;10;
83484;PMS5003;73420;32.678;-85.380;2024-02-28T02:19:45;10;10;
83484;PMS5003;73420;32.678;-85.380;2024-02-28T02:22:10;13;13;
83484;PMS5003;73420;32.678;-85.380;2024-02-28T02:24:35;18;14;
83484;PMS5003;73420;32.678;-85.380;2024-02-28T02:27:02;13;13;
83484;PMS5003;73420;32.678;-85.380;2024-02-28T02:29:26;16;15;
83484;PMS5003;73420;32.678;-85.380;2024-02-28T02:31:51;12;12;
83484;PMS5003;73420;32.678;-85.380;2024-02-28T02:34:16;12;10;
83484;PMS5003;73420;32.678;-85.380;2024-02-28T02:36:42;14;12;
83484;PMS5003;73420;32.678;-85.380;2024-02-28T02:39:07;11;11;
83484;PMS5003;73420;32.678;-85.380;2024-02-28T02:41:32;12;12;
83484;PMS5003;73420;32.678;-85.380;2024-02-28T02:43:58;14;13;
83484;PMS5003;73420;32.678;-85.380;2024-02-28T02:46:23;11;11;
83484;PMS5003;73420;32.678;-85.380;2024-02-28T02:48:48;12;12;
83484;PMS5003;73420;32.678;-85.380;2024-02-28T02:51:14;11;11;
83484;PMS5003;73420;32.678;-85.380;2024-02-28T02:53:39;15;13;
83484;PMS5003;73420;32.678;-85.380;2024-02-28T02:56:05;12;12;
83484;PMS5003;73420;32.678;-85.380;2024-02-28T02:58:30;13;11;
83484;PMS5003;73420;32.678;-85.380;2024-02-28T03:00:55;11;11;
83484;PMS5003;73420;32.678;-85.380;2024-02-28T03:03:20;10;10;
83484;PMS5003;73420;32.678;-85.380;2024-02-28T03:05:46;13;13;
83484;PMS5003;73420;32.678;-85.380;2024-02-28T03:08:12;12;10;
83484;PMS5003;73420;32.678;-85.380;2024-02-28T03:10:39;13;12;
83484;PMS5003;73420;32.678;-85.380;2024-02-28T03:13:04;12;11;
83484;PMS5003;73420;32.678;-85.380;2024-02-28T03:15:32;15;15;
83484;PMS5003;73420;32.678;-85.380;2024-02-28T03:17:58;14;12;
83484;PMS5003;73420;32.678;-85.380;2024-02-28T03:20:18;13;11;
83484;PMS5003;73420;32.678;-85.380;2024-02-28T03:22:43;9;9;
83484;PMS5003;73420;32.678;-85.380;2024-02-28T03:25:11;11;10;
83484;PMS5003;73420;32.678;-85.380;2024-02-28T03:27:34;11;10;
83484;PMS5003;73420;32.678;-85.380;2024-02-28T03:30:01;12;10;
83484;PMS5003;73420;32.678;-85.380;2024-02-28T03:32:25;10;10;
83484;PMS5003;73420;32.678;-85.380;2024-02-28T03:34:50;8;8;
83484;PMS5003;73420;32.678;-85.380;2024-02-28T03:37:15;10;9;
83484;PMS5003;73420;32.678;-85.380;2024-02-28T03:39:41;10;10;
83484;PMS5003;73420;32.678;-85.380;2024-02-28T03:42:11;10;10;
83484;PMS5003;73420;32.678;-85.380;2024-02-28T03:44:33;8;8;
83484;PMS5003;73420;32.678;-85.380;2024-02-28T03:47:00;12;10;
83484;PMS5003;73420;32.678;-85.380;2024-02-28T03:54:20;8;8;
83484;PMS5003;73420;32.678;-85.380;2024-02-28T03:56:44;11;11;
83484;PMS5003;73420;32.678;-85.380;2024-02-28T03:59:07;9;8;
83484;PMS5003;73420;32.678;-85.380;2024-02-28T04:01:29;9;9;
83484;PMS5003;73420;32.678;-85.380;2024-02-28T04:03:54;8;8;
83484;PMS5003;73420;32.678;-85.380;2024-02-28T04:06:19;12;12;
83484;PMS5003;73420;32.678;-85.380;2024-02-28T04:08:44;9;8;
83484;PMS5003;73420;32.678;-85.380;2024-02-28T04:11:10;8;8;
83484;PMS5003;73420;32.678;-85.380;2024-02-28T04:13:39;12;11;
83484;PMS5003;73420;32.678;-85.380;2024-02-28T04:16:03;11;10;
83484;PMS5003;73420;32.678;-85.380;2024-02-28T04:18:26;9;9;
83484;PMS5003;73420;32.678;-85.380;2024-02-28T04:20:51;8;8;
83484;PMS5003;73420;32.678;-85.380;2024-02-28T04:23:16;9;8;
83484;PMS5003;73420;32.678;-85.380;2024-02-28T04:25:44;11;11;
83484;PMS5003;73420;32.678;-85.380;2024-02-28T04:28:07;10;10;
83484;PMS5003;73420;32.678;-85.380;2024-02-28T04:30:32;11;9;
83484;PMS5003;73420;32.678;-85.380;2024-02-28T04:32:58;9;8;
83484;PMS5003;73420;32.678;-85.380;2024-02-28T04:35:23;12;12;
83484;PMS5003;73420;32.678;-85.380;2024-02-28T04:37:49;9;9;
83484;PMS5003;73420;32.678;-85.380;2024-02-28T04:40:14;8;8;
83484;PMS5003;73420;32.678;-85.380;2024-02-28T04:42:40;8;8;
83484;PMS5003;73420;32.678;-85.380;2024-02-28T04:45:05;9;8;
83484;PMS5003;73420;32.678;-85.380;2024-02-28T04:47:30;7;7;
83484;PMS5003;73420;32.678;-85.380;2024-02-28T04:49:56;8;8;
83484;PMS5003;73420;32.678;-85.380;2024-02-28T04:52:21;9;8;
83484;PMS5003;73420;32.678;-85.380;2024-02-28T04:54:47;10;9;
83484;PMS5003;73420;32.678;-85.380;2024-02-28T04:57:12;9;8;
83484;PMS5003;73420;32.678;-85.380;2024-02-28T04:59:37;10;8;
83484;PMS5003;73420;32.678;-85.380;2024-02-28T05:02:03;10;9;
83484;PMS5003;73420;32.678;-85.380;2024-02-28T05:04:28;9;9;
83484;PMS5003;73420;32.678;-85.380;2024-02-28T05:06:53;8;6;
83484;PMS5003;73420;32.678;-85.380;2024-02-28T05:09:19;8;8;
83484;PMS5003;73420;32.678;-85.380;2024-02-28T05:11:44;7;7;
83484;PMS5003;73420;32.678;-85.380;2024-02-28T05:14:13;10;10;
83484;PMS5003;73420;32.678;-85.380;2024-02-28T05:16:35;9;8;
83484;PMS5003;73420;32.678;-85.380;2024-02-28T05:19:00;6;6;
83484;PMS5003;73420;32.678;-85.380;2024-02-28T05:21:27;8;7;
83484;PMS5003;73420;32.678;-85.380;2024-02-28T05:23:51;7;7;
83484;PMS5003;73420;32.678;-85.380;2024-02-28T05:26:16;8;8;
83484;PMS5003;73420;32.678;-85.380;2024-02-28T05:28:42;6;5;
83484;PMS5003;73420;32.678;-85.380;2024-02-28T05:33:32;7;6;
83484;PMS5003;73420;32.678;-85.380;2024-02-28T05:35:58;10;9;
83484;PMS5003;73420;32.678;-85.380;2024-02-28T05:38:23;8;8;
83484;PMS5003;73420;32.678;-85.380;2024-02-28T05:40:48;7;6;
83484;PMS5003;73420;32.678;-85.380;2024-02-28T05:43:14;7;7;
83484;PMS5003;73420;32.678;-85.380;2024-02-28T05:45:39;6;6;
83484;PMS5003;73420;32.678;-85.380;2024-02-28T05:48:05;6;6;
83484;PMS5003;73420;32.678;-85.380;2024-02-28T05:50:30;7;7;
83484;PMS5003;73420;32.678;-85.380;2024-02-28T05:52:55;6;6;
83484;PMS5003;73420;32.678;-85.380;2024-02-28T05:55:21;9;8;
83484;PMS5003;73420;32.678;-85.380;2024-02-28T05:57:46;7;7;
83484;PMS5003;73420;32.678;-85.380;2024-02-28T06:00:14;8;8;
83484;PMS5003;73420;32.678;-85.380;2024-02-28T06:02:37;6;6;
83484;PMS5003;73420;32.678;-85.380;2024-02-28T06:05:02;6;6;
83484;PMS5003;73420;32.678;-85.380;2024-02-28T06:07:27;7;7;
83484;PMS5003;73420;32.678;-85.380;2024-02-28T06:09:53;8;7;
83484;PMS5003;73420;32.678;-85.380;2024-02-28T06:12:18;9;8;
83484;PMS5003;73420;32.678;-85.380;2024-02-28T06:14:44;7;7;
83484;PMS5003;73420;32.678;-85.380;2024-02-28T06:17:09;7;6;
83484;PMS5003;73420;32.678;-85.380;2024-02-28T06:19:34;6;6;
83484;PMS5003;73420;32.678;-85.380;2024-02-28T06:22:00;7;7;
83484;PMS5003;73420;32.678;-85.380;2024-02-28T06:24:25;7;7;
83484;PMS5003;73420;32.678;-85.380;2024-02-28T06:26:51;5;5;
83484;PMS5003;73420;32.678;-85.380;2024-02-28T06:29:16;8;7;
83484;PMS5003;73420;32.678;-85.380;2024-02-28T06:31:41;9;8;
83484;PMS5003;73420;32.678;-85.380;2024-02-28T06:34:06;7;6;
83484;PMS5003;73420;32.678;-85.380;2024-02-28T06:36:32;6;6;
83484;PMS5003;73420;32.678;-85.380;2024-02-28T06:39:01;7;7;
83484;PMS5003;73420;32.678;-85.380;2024-02-28T06:41:22;6;6;
83484;PMS5003;73420;32.678;-85.380;2024-02-28T06:43:47;8;8;
83484;PMS5003;73420;32.678;-85.380;2024-02-28T06:46:13;5;5;
83484;PMS5003;73420;32.678;-85.380;2024-02-28T06:48:38;6;5;
83484;PMS5003;73420;32.678;-85.380;2024-02-28T06:51:07;8;8;
83484;PMS5003;73420;32.678;-85.380;2024-02-28T06:53:29;7;6;
83484;PMS5003;73420;32.678;-85.380;2024-02-28T06:55:54;6;6;
83484;PMS5003;73420;32.678;-85.380;2024-02-28T06:58:20;6;5;
83484;PMS5003;73420;32.678;-85.380;2024-02-28T07:00:46;6;5;
83484;PMS5003;73420;32.678;-85.380;2024-02-28T07:03:14;7;6;
83484;PMS5003;73420;32.678;-85.380;2024-02-28T07:05:36;6;6;
83484;PMS5003;73420;32.678;-85.380;2024-02-28T07:08:01;8;6;
83484;PMS5003;73420;32.678;-85.380;2024-02-28T07:10:26;7;6;
83484;PMS5003;73420;32.678;-85.380;2024-02-28T07:12:51;6;6;
83484;PMS5003;73420;32.678;-85.380;2024-02-28T07:15:20;6;5;
83484;PMS5003;73420;32.678;-85.380;2024-02-28T07:17:42;6;5;
83484;PMS5003;73420;32.678;-85.380;2024-02-28T07:20:08;8;7;
83484;PMS5003;73420;32.678;-85.380;2024-02-28T07:22:33;6;5;
83484;PMS5003;73420;32.678;-85.380;2024-02-28T07:24:58;5;5;
83484;PMS5003;73420;32.678;-85.380;2024-02-28T07:27:27;5;5;
83484;PMS5003;73420;32.678;-85.380;2024-02-28T07:29:49;5;5;
83484;PMS5003;73420;32.678;-85.380;2024-02-28T07:32:14;6;5;
83484;PMS5003;73420;32.678;-85.380;2024-02-28T07:34:40;6;6;
83484;PMS5003;73420;32.678;-85.380;2024-02-28T07:37:05;7;5;
83484;PMS5003;73420;32.678;-85.380;2024-02-28T07:39:31;8;7;
83484;PMS5003;73420;32.678;-85.380;2024-02-28T07:41:56;5;5;
83484;PMS5003;73420;32.678;-85.380;2024-02-28T07:44:21;6;5;
83484;PMS5003;73420;32.678;-85.380;2024-02-28T07:46:47;7;7;
83484;PMS5003;73420;32.678;-85.380;2024-02-28T07:49:12;8;6;
83484;PMS5003;73420;32.678;-85.380;2024-02-28T07:51:37;8;8;
83484;PMS5003;73420;32.678;-85.380;2024-02-28T07:54:03;9;7;
83484;PMS5003;73420;32.678;-85.380;2024-02-28T07:56:28;5;4;
83484;PMS5003;73420;32.678;-85.380;2024-02-28T07:58:53;6;6;
83484;PMS5003;73420;32.678;-85.380;2024-02-28T08:01:19;7;6;
83484;PMS5003;73420;32.678;-85.380;2024-02-28T08:03:44;5;5;
83484;PMS5003;73420;32.678;-85.380;2024-02-28T08:06:10;8;7;
83484;PMS5003;73420;32.678;-85.380;2024-02-28T08:08:35;8;6;
83484;PMS5003;73420;32.678;-85.380;2024-02-28T08:11:00;7;7;
83484;PMS5003;73420;32.678;-85.380;2024-02-28T08:13:26;7;7;
83484;PMS5003;73420;32.678;-85.380;2024-02-28T08:15:51;6;5;
83484;PMS5003;73420;32.678;-85.380;2024-02-28T08:18:16;5;4;
83484;PMS5003;73420;32.678;-85.380;2024-02-28T08:20:42;8;8;
83484;PMS5003;73420;32.678;-85.380;2024-02-28T08:23:07;6;5;
83484;PMS5003;73420;32.678;-85.380;2024-02-28T08:25:32;4;4;
83484;PMS5003;73420;32.678;-85.380;2024-02-28T08:27:58;5;4;
83484;PMS5003;73420;32.678;-85.380;2024-02-28T08:30:23;7;7;
83484;PMS5003;73420;32.678;-85.380;2024-02-28T08:32:48;5;5;
83484;PMS5003;73420;32.678;-85.380;2024-02-28T08:35:14;5;5;
83484;PMS5003;73420;32.678;-85.380;2024-02-28T08:37:39;6;6;
83484;PMS5003;73420;32.678;-85.380;2024-02-28T08:40:06;5;5;
83484;PMS5003;73420;32.678;-85.380;2024-02-28T08:42:30;6;6;
83484;PMS5003;73420;32.678;-85.380;2024-02-28T08:44:55;7;6;
83484;PMS5003;73420;32.678;-85.380;2024-02-28T08:47:22;7;6;
83484;PMS5003;73420;32.678;-85.380;2024-02-28T08:49:46;5;4;
83484;PMS5003;73420;32.678;-85.380;2024-02-28T08:52:11;6;6;
83484;PMS5003;73420;32.678;-85.380;2024-02-28T08:54:36;7;6;
83484;PMS5003;73420;32.678;-85.380;2024-02-28T08:57:02;6;6;
83484;PMS5003;73420;32.678;-85.380;2024-02-28T08:59:27;7;7;
83484;PMS5003;73420;32.678;-85.380;2024-02-28T09:01:53;6;6;
83484;PMS5003;73420;32.678;-85.380;2024-02-28T09:04:18;7;7;
83484;PMS5003;73420;32.678;-85.380;2024-02-28T09:06:43;6;6;
83484;PMS5003;73420;32.678;-85.380;2024-02-28T09:09:09;6;5;
83484;PMS5003;73420;32.678;-85.380;2024-02-28T09:11:34;8;8;
83484;PMS5003;73420;32.678;-85.380;2024-02-28T09:13:59;8;6;
83484;PMS5003;73420;32.678;-85.380;2024-02-28T09:16:25;6;5;
83484;PMS5003;73420;32.678;-85.380;2024-02-28T09:18:50;10;8;
83484;PMS5003;73420;32.678;-85.380;2024-02-28T09:21:15;7;5;
83484;PMS5003;73420;32.678;-85.380;2024-02-28T09:23:41;5;5;
83484;PMS5003;73420;32.678;-85.380;2024-02-28T09:26:10;6;6;
83484;PMS5003;73420;32.678;-85.380;2024-02-28T09:28:32;6;5;
83484;PMS5003;73420;32.678;-85.380;2024-02-28T09:30:57;4;4;
83484;PMS5003;73420;32.678;-85.380;2024-02-28T09:33:22;5;5;
83484;PMS5003;73420;32.678;-85.380;2024-02-28T09:35:48;8;7;
83484;PMS5003;73420;32.678;-85.380;2024-02-28T09:38:13;8;7;
83484;PMS5003;73420;32.678;-85.380;2024-02-28T09:40:41;5;5;
83484;PMS5003;73420;32.678;-85.380;2024-02-28T09:43:04;7;7;
83484;PMS5003;73420;32.678;-85.380;2024-02-28T09:45:29;8;7;
83484;PMS5003;73420;32.678;-85.380;2024-02-28T09:47:54;8;8;
83484;PMS5003;73420;32.678;-85.380;2024-02-28T09:50:20;7;7;
83484;PMS5003;73420;32.678;-85.380;2024-02-28T09:52:45;6;5;
83484;PMS5003;73420;32.678;-85.380;2024-02-28T09:55:10;7;5;
83484;PMS5003;73420;32.678;-85.380;2024-02-28T09:57:36;7;7;
83484;PMS5003;73420;32.678;-85.380;2024-02-28T10:00:01;9;7;
83484;PMS5003;73420;32.678;-85.380;2024-02-28T10:02:26;6;5;
83484;PMS5003;73420;32.678;-85.380;2024-02-28T10:04:52;5;5;
83484;PMS5003;73420;32.678;-85.380;2024-02-28T10:07:17;7;7;
83484;PMS5003;73420;32.678;-85.380;2024-02-28T10:09:42;8;7;
83484;PMS5003;73420;32.678;-85.380;2024-02-28T10:12:08;8;6;
83484;PMS5003;73420;32.678;-85.380;2024-02-28T10:14:33;5;5;
83484;PMS5003;73420;32.678;-85.380;2024-02-28T10:17:03;5;5;
83484;PMS5003;73420;32.678;-85.380;2024-02-28T10:19:24;6;6;
83484;PMS5003;73420;32.678;-85.380;2024-02-28T10:21:50;6;6;
83484;PMS5003;73420;32.678;-85.380;2024-02-28T10:24:14;6;6;
83484;PMS5003;73420;32.678;-85.380;2024-02-28T10:26:43;10;8;
83484;PMS5003;73420;32.678;-85.380;2024-02-28T10:29:07;6;6;
83484;PMS5003;73420;32.678;-85.380;2024-02-28T10:31:32;6;6;
83484;PMS5003;73420;32.678;-85.380;2024-02-28T10:33:56;7;6;
83484;PMS5003;73420;32.678;-85.380;2024-02-28T10:36:21;8;7;
83484;PMS5003;73420;32.678;-85.380;2024-02-28T10:38:46;6;6;
83484;PMS5003;73420;32.678;-85.380;2024-02-28T10:41:12;6;5;
83484;PMS5003;73420;32.678;-85.380;2024-02-28T10:43:37;9;9;
83484;PMS5003;73420;32.678;-85.380;2024-02-28T10:46:03;5;5;
83484;PMS5003;73420;32.678;-85.380;2024-02-28T10:48:28;6;6;
83484;PMS5003;73420;32.678;-85.380;2024-02-28T10:50:53;7;7;
83484;PMS5003;73420;32.678;-85.380;2024-02-28T10:53:21;7;7;
83484;PMS5003;73420;32.678;-85.380;2024-02-28T10:55:44;6;6;
83484;PMS5003;73420;32.678;-85.380;2024-02-28T10:58:10;7;7;
83484;PMS5003;73420;32.678;-85.380;2024-02-28T11:00:35;8;7;
83484;PMS5003;73420;32.678;-85.380;2024-02-28T11:03:02;9;9;
83484;PMS5003;73420;32.678;-85.380;2024-02-28T11:07:51;8;7;
83484;PMS5003;73420;32.678;-85.380;2024-02-28T11:10:16;7;6;
83484;PMS5003;73420;32.678;-85.380;2024-02-28T11:12:42;6;6;
83484;PMS5003;73420;32.678;-85.380;2024-02-28T11:15:15;7;7;
83484;PMS5003;73420;32.678;-85.380;2024-02-28T11:17:33;7;7;
83484;PMS5003;73420;32.678;-85.380;2024-02-28T11:19:58;8;7;
83484;PMS5003;73420;32.678;-85.380;2024-02-28T11:22:23;9;8;
83484;PMS5003;73420;32.678;-85.380;2024-02-28T11:24:48;7;7;
83484;PMS5003;73420;32.678;-85.380;2024-02-28T11:27:13;5;5;
83484;PMS5003;73420;32.678;-85.380;2024-02-28T11:29:39;9;6;
83484;PMS5003;73420;32.678;-85.380;2024-02-28T11:32:05;6;6;
83484;PMS5003;73420;32.678;-85.380;2024-02-28T11:34:30;6;6;
83484;PMS5003;73420;32.678;-85.380;2024-02-28T11:36:55;6;6;
83484;PMS5003;73420;32.678;-85.380;2024-02-28T11:39:20;5;5;
83484;PMS5003;73420;32.678;-85.380;2024-02-28T11:41:47;8;7;
83484;PMS5003;73420;32.678;-85.380;2024-02-28T11:44:12;9;8;
83484;PMS5003;73420;32.678;-85.380;2024-02-28T11:46:36;7;6;
83484;PMS5003;73420;32.678;-85.380;2024-02-28T11:49:02;10;9;
83484;PMS5003;73420;32.678;-85.380;2024-02-28T11:51:27;8;6;
83484;PMS5003;73420;32.678;-85.380;2024-02-28T11:53:58;7;5;
83484;PMS5003;73420;32.678;-85.380;2024-02-28T11:56:18;9;7;
83484;PMS5003;73420;32.678;-85.380;2024-02-28T12:01:09;5;5;
83484;PMS5003;73420;32.678;-85.380;2024-02-28T12:03:34;8;8;
83484;PMS5003;73420;32.678;-85.380;2024-02-28T12:06:04;8;8;
83484;PMS5003;73420;32.678;-85.380;2024-02-28T12:08:25;6;6;
83484;PMS5003;73420;32.678;-85.380;2024-02-28T12:10:50;8;8;
83484;PMS5003;73420;32.678;-85.380;2024-02-28T12:13:16;8;7;
83484;PMS5003;73420;32.678;-85.380;2024-02-28T12:15:41;7;7;
83484;PMS5003;73420;32.678;-85.380;2024-02-28T12:18:08;10;9;
83484;PMS5003;73420;32.678;-85.380;2024-02-28T12:20:32;11;7;
83484;PMS5003;73420;32.678;-85.380;2024-02-28T12:22:57;8;7;
83484;PMS5003;73420;32.678;-85.380;2024-02-28T12:25:22;9;9;
83484;PMS5003;73420;32.678;-85.380;2024-02-28T12:27:48;8;7;
83484;PMS5003;73420;32.678;-85.380;2024-02-28T12:30:13;7;7;
83484;PMS5003;73420;32.678;-85.380;2024-02-28T12:32:39;6;5;
83484;PMS5003;73420;32.678;-85.380;2024-02-28T12:35:04;10;9;
83484;PMS5003;73420;32.678;-85.380;2024-02-28T12:37:29;6;6;
83484;PMS5003;73420;32.678;-85.380;2024-02-28T12:39:54;7;7;
83484;PMS5003;73420;32.678;-85.380;2024-02-28T12:42:20;11;9;
83484;PMS5003;73420;32.678;-85.380;2024-02-28T12:44:46;10;9;
83484;PMS5003;73420;32.678;-85.380;2024-02-28T12:47:10;8;8;
83484;PMS5003;73420;32.678;-85.380;2024-02-28T12:49:35;9;7;
83484;PMS5003;73420;32.678;-85.380;2024-02-28T12:52:01;9;9;
83484;PMS5003;73420;32.678;-85.380;2024-02-28T12:54:26;8;8;
83484;PMS5003;73420;32.678;-85.380;2024-02-28T12:56:51;10;10;
83484;PMS5003;73420;32.678;-85.380;2024-02-28T12:59:17;10;10;
83484;PMS5003;73420;32.678;-85.380;2024-02-28T13:01:43;12;9;
83484;PMS5003;73420;32.678;-85.380;2024-02-28T13:04:08;8;7;
83484;PMS5003;73420;32.678;-85.380;2024-02-28T13:06:33;8;7;
83484;PMS5003;73420;32.678;-85.380;2024-02-28T13:08:59;9;8;
83484;PMS5003;73420;32.678;-85.380;2024-02-28T13:11:24;7;7;
83484;PMS5003;73420;32.678;-85.380;2024-02-28T13:13:50;11;9;
83484;PMS5003;73420;32.678;-85.380;2024-02-28T13:16:15;8;7;
83484;PMS5003;73420;32.678;-85.380;2024-02-28T13:18:43;8;7;
83484;PMS5003;73420;32.678;-85.380;2024-02-28T13:21:05;8;7;
83484;PMS5003;73420;32.678;-85.380;2024-02-28T13:23:31;8;7;
83484;PMS5003;73420;32.678;-85.380;2024-02-28T13:25:56;10;10;
83484;PMS5003;73420;32.678;-85.380;2024-02-28T13:28:21;10;8;
83484;PMS5003;73420;32.678;-85.380;2024-02-28T13:30:47;12;11;
83484;PMS5003;73420;32.678;-85.380;2024-02-28T13:33:12;10;9;
83484;PMS5003;73420;32.678;-85.380;2024-02-28T13:35:38;11;9;
83484;PMS5003;73420;32.678;-85.380;2024-02-28T13:38:03;8;8;
83484;PMS5003;73420;32.678;-85.380;2024-02-28T13:40:28;8;8;
83484;PMS5003;73420;32.678;-85.380;2024-02-28T13:42:53;9;9;
83484;PMS5003;73420;32.678;-85.380;2024-02-28T13:45:19;10;7;
83484;PMS5003;73420;32.678;-85.380;2024-02-28T13:47:44;9;8;
83484;PMS5003;73420;32.678;-85.380;2024-02-28T13:50:09;9;9;
83484;PMS5003;73420;32.678;-85.380;2024-02-28T13:52:34;10;10;
83484;PMS5003;73420;32.678;-85.380;2024-02-28T13:55:00;9;9;
83484;PMS5003;73420;32.678;-85.380;2024-02-28T13:57:25;10;8;
83484;PMS5003;73420;32.678;-85.380;2024-02-28T13:59:50;9;9;
83484;PMS5003;73420;32.678;-85.380;2024-02-28T14:02:16;9;9;
83484;PMS5003;73420;32.678;-85.380;2024-02-28T14:04:41;10;10;
83484;PMS5003;73420;32.678;-85.380;2024-02-28T14:07:07;9;9;
83484;PMS5003;73420;32.678;-85.380;2024-02-28T14:09:31;11;11;
83484;PMS5003;73420;32.678;-85.380;2024-02-28T14:11:56;45;42;
83484;PMS5003;73420;32.678;-85.380;2024-02-28T14:14:22;142;131;
83484;PMS5003;73420;32.678;-85.380;2024-02-28T14:16:47;130;114;
83484;PMS5003;73420;32.678;-85.380;2024-02-28T14:19:13;46;44;
83484;PMS5003;73420;32.678;-85.380;2024-02-28T14:21:38;51;49;
83484;PMS5003;73420;32.678;-85.380;2024-02-28T14:24:03;25;23;
83484;PMS5003;73420;32.678;-85.380;2024-02-28T14:26:29;16;15;
83484;PMS5003;73420;32.678;-85.380;2024-02-28T14:28:54;16;15;
83484;PMS5003;73420;32.678;-85.380;2024-02-28T14:31:23;23;20;
83484;PMS5003;73420;32.678;-85.380;2024-02-28T14:33:45;17;16;
83484;PMS5003;73420;32.678;-85.380;2024-02-28T14:36:10;15;15;
83484;PMS5003;73420;32.678;-85.380;2024-02-28T14:38:36;13;12;
83484;PMS5003;73420;32.678;-85.380;2024-02-28T14:41:02;15;14;
83484;PMS5003;73420;32.678;-85.380;2024-02-28T14:43:26;12;12;
83484;PMS5003;73420;32.678;-85.380;2024-02-28T14:45:51;14;12;
83484;PMS5003;73420;32.678;-85.380;2024-02-28T14:48:16;13;11;
83484;PMS5003;73420;32.678;-85.380;2024-02-28T14:50:42;13;12;
83484;PMS5003;73420;32.678;-85.380;2024-02-28T14:53:08;14;12;
83484;PMS5003;73420;32.678;-85.380;2024-02-28T14:55:33;12;10;
83484;PMS5003;73420;32.678;-85.380;2024-02-28T14:57:58;11;11;
83484;PMS5003;73420;32.678;-85.380;2024-02-28T15:00:23;12;12;
83484;PMS5003;73420;32.678;-85.380;2024-02-28T15:02:49;17;14;
83484;PMS5003;73420;32.678;-85.380;2024-02-28T15:05:14;21;17;
83484;PMS5003;73420;32.678;-85.380;2024-02-28T15:07:43;25;23;
83484;PMS5003;73420;32.678;-85.380;2024-02-28T15:10:06;14;13;
83484;PMS5003;73420;32.678;-85.380;2024-02-28T15:12:31;16;15;
83484;PMS5003;73420;32.678;-85.380;2024-02-28T15:14:56;14;14;
83484;PMS5003;73420;32.678;-85.380;2024-02-28T15:17:21;13;13;
83484;PMS5003;73420;32.678;-85.380;2024-02-28T15:19:47;13;12;
83484;PMS5003;73420;32.678;-85.380;2024-02-28T15:22:12;12;11;
83484;PMS5003;73420;32.678;-85.380;2024-02-28T15:24:37;14;13;
83484;PMS5003;73420;32.678;-85.380;2024-02-28T15:27:03;11;11;
83484;PMS5003;73420;32.678;-85.380;2024-02-28T15:29:28;14;12;
83484;PMS5003;73420;32.678;-85.380;2024-02-28T15:31:53;11;11;
83484;PMS5003;73420;32.678;-85.380;2024-02-28T15:34:18;43;39;
83484;PMS5003;73420;32.678;-85.380;2024-02-28T15:36:44;44;40;
83484;PMS5003;73420;32.678;-85.380;2024-02-28T15:39:09;22;20;
83484;PMS5003;73420;32.678;-85.380;2024-02-28T15:41:35;19;19;
83484;PMS5003;73420;32.678;-85.380;2024-02-28T15:44:00;20;18;
83484;PMS5003;73420;32.678;-85.380;2024-02-28T15:46:26;12;12;
83484;PMS5003;73420;32.678;-85.380;2024-02-28T15:48:51;32;31;
83484;PMS5003;73420;32.678;-85.380;2024-02-28T15:51:17;38;37;
83484;PMS5003;73420;32.678;-85.380;2024-02-28T15:53:42;30;28;
83484;PMS5003;73420;32.678;-85.380;2024-02-28T15:56:09;30;26;
83484;PMS5003;73420;32.678;-85.380;2024-02-28T15:58:34;15;15;
83484;PMS5003;73420;32.678;-85.380;2024-02-28T16:00:59;16;16;
83484;PMS5003;73420;32.678;-85.380;2024-02-28T16:03:25;17;16;
83484;PMS5003;73420;32.678;-85.380;2024-02-28T16:05:50;20;19;
83484;PMS5003;73420;32.678;-85.380;2024-02-28T16:08:17;14;13;